Wetterdaten: aktuell Mittwoch, 06.05.2026 03:44
Datum Zeit Temp. A. Feuchte A. Luftdruck Regen Wind Richtung Richtung Taupunkt Windchill
06.05.2026 03:44 14,2 °C 85 % 998,1 hPa 0,0 l/m² 0,1 km/h (0 Bft) S-SO 150 ° 11,7 °C 14,2 °C
06.05.2026 03:42 14,2 °C 85 % 998,1 hPa 0,0 l/m² 0,2 km/h (0 Bft) S-SO 150 ° 11,7 °C 14,2 °C
06.05.2026 03:40 14,2 °C 85 % 998,1 hPa 0,0 l/m² 0,1 km/h (0 Bft) S-SO 150 ° 11,7 °C 14,2 °C
06.05.2026 03:38 14,2 °C 85 % 998,1 hPa 0,0 l/m² 0,1 km/h (0 Bft) S-SO 150 ° 11,7 °C 14,2 °C
06.05.2026 03:37 14,2 °C 85 % 998,1 hPa 0,0 l/m² 2,1 km/h (1 Bft) S-SO 150 ° 11,7 °C 14,2 °C
06.05.2026 03:35 14,3 °C 85 % 998,1 hPa 0,0 l/m² 2,1 km/h (1 Bft) S-SO 150 ° 11,8 °C 14,3 °C
06.05.2026 03:33 14,3 °C 85 % 998,1 hPa 0,0 l/m² 0,3 km/h (0 Bft) S-SO 150 ° 11,8 °C 14,3 °C
06.05.2026 03:31 14,3 °C 85 % 998,1 hPa 0,0 l/m² 0,3 km/h (0 Bft) S-SO 150 ° 11,8 °C 14,3 °C
06.05.2026 03:29 14,3 °C 85 % 999,1 hPa 0,0 l/m² 0,0 km/h (0 Bft) S-SO 150 ° 11,8 °C 14,3 °C
06.05.2026 03:27 14,4 °C 85 % 999,1 hPa 0,0 l/m² 0,6 km/h (0 Bft) S-SO 150 ° 11,9 °C 14,4 °C
06.05.2026 03:25 14,4 °C 85 % 999,1 hPa 0,0 l/m² 0,6 km/h (0 Bft) S-SO 150 ° 11,9 °C 14,4 °C
06.05.2026 03:23 14,4 °C 85 % 999,1 hPa 0,0 l/m² 0,8 km/h (0 Bft) S-SO 155 ° 11,9 °C 14,4 °C
06.05.2026 03:21 14,5 °C 85 % 999,1 hPa 0,0 l/m² 0,8 km/h (0 Bft) S-SO 155 ° 12,0 °C 14,5 °C
06.05.2026 03:19 14,5 °C 85 % 999,1 hPa 0,0 l/m² 0,2 km/h (0 Bft) S-SO 155 ° 12,0 °C 14,5 °C
06.05.2026 03:17 14,5 °C 85 % 999,1 hPa 0,0 l/m² 0,2 km/h (0 Bft) S-SO 155 ° 12,0 °C 14,5 °C
06.05.2026 03:15 14,5 °C 85 % 999,1 hPa 0,0 l/m² 0,7 km/h (0 Bft) S-SO 155 ° 12,0 °C 14,5 °C
06.05.2026 03:13 14,6 °C 86 % 999,1 hPa 0,0 l/m² 0,4 km/h (0 Bft) S-SO 155 ° 12,3 °C 14,6 °C
06.05.2026 03:11 14,6 °C 86 % 999,1 hPa 0,0 l/m² 1,0 km/h (0 Bft) S-SO 155 ° 12,3 °C 14,6 °C
06.05.2026 03:09 14,6 °C 86 % 999,1 hPa 0,0 l/m² 1,0 km/h (0 Bft) S-SO 155 ° 12,3 °C 14,6 °C
06.05.2026 03:07 14,6 °C 86 % 999,1 hPa 0,0 l/m² 0,5 km/h (0 Bft) S-SO 160 ° 12,3 °C 14,6 °C
06.05.2026 03:05 14,6 °C 86 % 999,1 hPa 0,0 l/m² 3,1 km/h (1 Bft) S-SO 160 ° 12,3 °C 14,6 °C
06.05.2026 03:03 14,6 °C 86 % 999,1 hPa 0,0 l/m² 3,1 km/h (1 Bft) S-SO 160 ° 12,3 °C 14,6 °C
06.05.2026 03:01 14,6 °C 86 % 998,1 hPa 0,0 l/m² 0,9 km/h (0 Bft) SO±22.5° 145 ° 12,3 °C 14,6 °C
06.05.2026 02:58 14,6 °C 86 % 998,1 hPa 0,0 l/m² 0,4 km/h (0 Bft) S±22.5° 190 ° 12,3 °C 14,6 °C
06.05.2026 02:56 14,6 °C 86 % 998,1 hPa 0,0 l/m² 0,7 km/h (0 Bft) S-SW±45° 205 ° 12,3 °C 14,6 °C
06.05.2026 02:55 14,7 °C 86 % 998,1 hPa 0,0 l/m² 0,7 km/h (0 Bft) S-SW±45° 205 ° 12,4 °C 14,7 °C
06.05.2026 02:53 14,7 °C 86 % 999,1 hPa 0,0 l/m² 0,0 km/h (0 Bft) S-SO 150 ° 12,4 °C 14,7 °C
06.05.2026 02:51 14,7 °C 86 % 999,1 hPa 0,0 l/m² 0,0 km/h (0 Bft) S-SO 150 ° 12,4 °C 14,7 °C
06.05.2026 02:49 14,7 °C 86 % 999,1 hPa 0,0 l/m² 4,9 km/h (1 Bft) SO±22.5° 145 ° 12,4 °C 14,7 °C
06.05.2026 02:47 14,7 °C 86 % 999,1 hPa 0,0 l/m² 4,9 km/h (1 Bft) SO±22.5° 145 ° 12,4 °C 14,7 °C
06.05.2026 02:45 14,7 °C 86 % 999,1 hPa 0,0 l/m² 1,0 km/h (0 Bft) O-SO 120 ° 12,4 °C 14,7 °C
06.05.2026 02:43 14,7 °C 86 % 999,1 hPa 0,0 l/m² 0,8 km/h (0 Bft) SO 130 ° 12,4 °C 14,7 °C
06.05.2026 02:41 14,7 °C 86 % 999,1 hPa 0,0 l/m² 0,8 km/h (0 Bft) SO 130 ° 12,4 °C 14,7 °C
06.05.2026 02:39 14,7 °C 86 % 999,1 hPa 0,0 l/m² 3,0 km/h (1 Bft) SO 135 ° 12,4 °C 14,7 °C
06.05.2026 02:37 14,7 °C 86 % 999,1 hPa 0,0 l/m² 3,0 km/h (1 Bft) S-SO±22.5° 155 ° 12,4 °C 14,7 °C
06.05.2026 02:35 14,7 °C 86 % 999,1 hPa 0,0 l/m² 0,3 km/h (0 Bft) S-SO 160 ° 12,4 °C 14,7 °C
06.05.2026 02:33 14,8 °C 86 % 999,1 hPa 0,0 l/m² 0,3 km/h (0 Bft) S-SO 160 ° 12,5 °C 14,8 °C
06.05.2026 02:31 14,8 °C 86 % 999,1 hPa 0,0 l/m² 1,2 km/h (1 Bft) SO 145 ° 12,5 °C 14,8 °C
06.05.2026 02:29 14,8 °C 86 % 999,1 hPa 0,0 l/m² 5,7 km/h (1 Bft) SO±22.5° 135 ° 12,5 °C 14,8 °C
06.05.2026 02:27 14,8 °C 86 % 999,1 hPa 0,0 l/m² 5,7 km/h (1 Bft) SO±22.5° 135 ° 12,5 °C 14,8 °C
06.05.2026 02:25 14,8 °C 86 % 999,1 hPa 0,0 l/m² 1,0 km/h (0 Bft) O-SO±22.5° 115 ° 12,5 °C 14,8 °C
_ Min-Zeit 03:37 00:03 02:55 - 00:00 - - 03:37 03:37
Minimum _ 14,2 °C 82 % 998,1 hPa - 0,0 km/h (0 Bft) - - 11,7 °C 14,2 °C
_ Max-Zeit 00:00 02:14 03:29 00:45 01:17 - - 00:00 00:00
Maximum _ 15,4 °C 86 % 999,1 hPa 0,4 l/m² 6,7 km/h
SO (2 Bft)
- - 12,5 °C 15,4 °C
Durchschnitt _ 14,9 °C 84 % 999,0 hPa #2,5 l/m² 1,5 km/h (1 Bft) SO - 12,3 °C 14,9 °C